sensor_id;sensor_type;location;lat;lon;timestamp;temperature;humidity
18868;DHT22;9563;49.240;9.088;2023-05-07T05:01:35;13.60;99.90
18868;DHT22;9563;49.240;9.088;2023-05-07T05:04:02;13.70;99.90
18868;DHT22;9563;49.240;9.088;2023-05-07T05:06:29;13.80;99.90
18868;DHT22;9563;49.240;9.088;2023-05-07T05:08:56;13.80;99.90
18868;DHT22;9563;49.240;9.088;2023-05-07T05:11:22;13.90;99.90
18868;DHT22;9563;49.240;9.088;2023-05-07T05:13:49;14.00;99.90
18868;DHT22;9563;49.240;9.088;2023-05-07T05:16:16;14.00;99.90
18868;DHT22;9563;49.240;9.088;2023-05-07T05:18:45;14.00;99.90
18868;DHT22;9563;49.240;9.088;2023-05-07T05:21:11;14.00;99.90
18868;DHT22;9563;49.240;9.088;2023-05-07T05:23:38;14.10;99.90
18868;DHT22;9563;49.240;9.088;2023-05-07T05:26:05;14.20;99.90
18868;DHT22;9563;49.240;9.088;2023-05-07T05:28:32;14.20;99.90
18868;DHT22;9563;49.240;9.088;2023-05-07T05:30:59;14.20;99.90
18868;DHT22;9563;49.240;9.088;2023-05-07T05:33:26;14.30;99.90
18868;DHT22;9563;49.240;9.088;2023-05-07T05:35:55;14.40;99.90
18868;DHT22;9563;49.240;9.088;2023-05-07T05:38:22;14.40;99.90
18868;DHT22;9563;49.240;9.088;2023-05-07T05:40:48;14.50;99.90
18868;DHT22;9563;49.240;9.088;2023-05-07T05:43:15;14.60;99.90
18868;DHT22;9563;49.240;9.088;2023-05-07T05:45:42;14.80;99.90
18868;DHT22;9563;49.240;9.088;2023-05-07T05:48:09;14.90;99.90
18868;DHT22;9563;49.240;9.088;2023-05-07T05:50:36;15.10;99.90
18868;DHT22;9563;49.240;9.088;2023-05-07T05:53:04;15.20;99.90
18868;DHT22;9563;49.240;9.088;2023-05-07T05:55:31;15.20;99.90
18868;DHT22;9563;49.240;9.088;2023-05-07T05:57:59;15.30;99.90
18868;DHT22;9563;49.240;9.088;2023-05-07T06:00:25;15.30;99.90
18868;DHT22;9563;49.240;9.088;2023-05-07T06:02:52;15.40;99.90
18868;DHT22;9563;49.240;9.088;2023-05-07T06:05:19;15.40;99.90
18868;DHT22;9563;49.240;9.088;2023-05-07T06:07:46;15.30;99.90
18868;DHT22;9563;49.240;9.088;2023-05-07T06:10:14;15.30;99.90
18868;DHT22;9563;49.240;9.088;2023-05-07T06:12:41;15.40;99.90
18868;DHT22;9563;49.240;9.088;2023-05-07T06:15:09;15.50;99.90
18868;DHT22;9563;49.240;9.088;2023-05-07T06:17:36;15.50;99.90
18868;DHT22;9563;49.240;9.088;2023-05-07T06:20:03;15.60;99.90
18868;DHT22;9563;49.240;9.088;2023-05-07T06:22:30;15.50;99.90
18868;DHT22;9563;49.240;9.088;2023-05-07T06:24:57;15.50;99.90
18868;DHT22;9563;49.240;9.088;2023-05-07T06:27:25;15.60;99.90
18868;DHT22;9563;49.240;9.088;2023-05-07T06:29:53;15.60;99.90
18868;DHT22;9563;49.240;9.088;2023-05-07T06:32:20;15.70;99.90
18868;DHT22;9563;49.240;9.088;2023-05-07T06:34:47;15.80;99.90
18868;DHT22;9563;49.240;9.088;2023-05-07T06:37:13;15.90;99.90
18868;DHT22;9563;49.240;9.088;2023-05-07T06:39:40;15.90;99.90
18868;DHT22;9563;49.240;9.088;2023-05-07T06:42:07;15.90;99.90
18868;DHT22;9563;49.240;9.088;2023-05-07T06:44:35;15.90;99.90
18868;DHT22;9563;49.240;9.088;2023-05-07T06:47:02;16.00;99.90
18868;DHT22;9563;49.240;9.088;2023-05-07T06:49:30;16.10;99.90
18868;DHT22;9563;49.240;9.088;2023-05-07T06:51:58;16.20;99.90
18868;DHT22;9563;49.240;9.088;2023-05-07T06:54:24;16.40;99.90
18868;DHT22;9563;49.240;9.088;2023-05-07T06:56:51;16.40;99.90
18868;DHT22;9563;49.240;9.088;2023-05-07T06:59:18;16.40;99.90
18868;DHT22;9563;49.240;9.088;2023-05-07T07:01:47;16.40;99.90
18868;DHT22;9563;49.240;9.088;2023-05-07T07:04:13;16.40;99.90
18868;DHT22;9563;49.240;9.088;2023-05-07T07:06:40;16.60;99.90
18868;DHT22;9563;49.240;9.088;2023-05-07T07:09:07;16.70;99.90
18868;DHT22;9563;49.240;9.088;2023-05-07T07:11:34;17.00;99.90
18868;DHT22;9563;49.240;9.088;2023-05-07T07:14:01;17.30;99.90
18868;DHT22;9563;49.240;9.088;2023-05-07T07:16:30;17.50;99.90
18868;DHT22;9563;49.240;9.088;2023-05-07T07:18:58;17.80;99.90
18868;DHT22;9563;49.240;9.088;2023-05-07T07:21:25;18.00;99.90
18868;DHT22;9563;49.240;9.088;2023-05-07T07:23:52;18.10;99.90
18868;DHT22;9563;49.240;9.088;2023-05-07T07:26:19;18.10;99.90
18868;DHT22;9563;49.240;9.088;2023-05-07T07:28:46;18.30;99.90
18868;DHT22;9563;49.240;9.088;2023-05-07T07:31:13;18.50;99.90
18868;DHT22;9563;49.240;9.088;2023-05-07T07:33:40;18.70;99.90
18868;DHT22;9563;49.240;9.088;2023-05-07T07:36:09;19.00;99.90
18868;DHT22;9563;49.240;9.088;2023-05-07T07:38:36;19.30;99.90
18868;DHT22;9563;49.240;9.088;2023-05-07T07:41:03;19.50;99.90
18868;DHT22;9563;49.240;9.088;2023-05-07T07:43:30;19.60;99.90
18868;DHT22;9563;49.240;9.088;2023-05-07T07:45:57;19.50;99.90
18868;DHT22;9563;49.240;9.088;2023-05-07T07:48:24;19.50;99.90
18868;DHT22;9563;49.240;9.088;2023-05-07T07:50:51;19.80;99.90
18868;DHT22;9563;49.240;9.088;2023-05-07T07:53:19;19.90;99.90
18868;DHT22;9563;49.240;9.088;2023-05-07T07:55:46;19.90;99.90
18868;DHT22;9563;49.240;9.088;2023-05-07T07:58:12;20.10;99.90
18868;DHT22;9563;49.240;9.088;2023-05-07T08:00:39;20.30;99.90
18868;DHT22;9563;49.240;9.088;2023-05-07T08:03:09;20.40;99.90
18868;DHT22;9563;49.240;9.088;2023-05-07T08:05:36;20.50;99.90
18868;DHT22;9563;49.240;9.088;2023-05-07T08:08:04;20.60;99.90
18868;DHT22;9563;49.240;9.088;2023-05-07T08:10:33;20.70;99.90
18868;DHT22;9563;49.240;9.088;2023-05-07T08:13:04;20.80;99.90
18868;DHT22;9563;49.240;9.088;2023-05-07T08:15:31;21.10;99.90
18868;DHT22;9563;49.240;9.088;2023-05-07T08:17:58;21.40;99.90
18868;DHT22;9563;49.240;9.088;2023-05-07T08:20:25;21.50;99.90
18868;DHT22;9563;49.240;9.088;2023-05-07T08:22:52;21.60;99.90
18868;DHT22;9563;49.240;9.088;2023-05-07T08:25:19;21.70;99.90
18868;DHT22;9563;49.240;9.088;2023-05-07T08:27:47;21.80;99.90
18868;DHT22;9563;49.240;9.088;2023-05-07T08:30:15;22.00;99.90
18868;DHT22;9563;49.240;9.088;2023-05-07T08:32:42;22.30;99.90
18868;DHT22;9563;49.240;9.088;2023-05-07T08:35:09;22.50;99.90
18868;DHT22;9563;49.240;9.088;2023-05-07T08:37:36;22.30;99.90
18868;DHT22;9563;49.240;9.088;2023-05-07T08:40:04;22.00;99.90
18868;DHT22;9563;49.240;9.088;2023-05-07T08:42:31;21.70;99.90
18868;DHT22;9563;49.240;9.088;2023-05-07T08:45:04;21.50;99.90
18868;DHT22;9563;49.240;9.088;2023-05-07T08:47:40;21.50;99.90
18868;DHT22;9563;49.240;9.088;2023-05-07T08:50:09;21.80;99.90
18868;DHT22;9563;49.240;9.088;2023-05-07T08:52:37;22.10;99.90
18868;DHT22;9563;49.240;9.088;2023-05-07T08:55:04;22.40;99.90
18868;DHT22;9563;49.240;9.088;2023-05-07T08:57:31;22.80;99.90
18868;DHT22;9563;49.240;9.088;2023-05-07T08:59:58;23.20;99.90
18868;DHT22;9563;49.240;9.088;2023-05-07T09:02:27;23.50;99.90
18868;DHT22;9563;49.240;9.088;2023-05-07T09:04:54;23.70;99.90
18868;DHT22;9563;49.240;9.088;2023-05-07T09:07:21;23.80;99.90
18868;DHT22;9563;49.240;9.088;2023-05-07T09:09:48;23.80;99.90
18868;DHT22;9563;49.240;9.088;2023-05-07T09:12:17;23.80;99.90
18868;DHT22;9563;49.240;9.088;2023-05-07T09:14:44;23.80;99.90
18868;DHT22;9563;49.240;9.088;2023-05-07T09:17:12;23.70;99.90
18868;DHT22;9563;49.240;9.088;2023-05-07T09:19:41;23.50;99.90
18868;DHT22;9563;49.240;9.088;2023-05-07T09:22:07;23.30;99.90
18868;DHT22;9563;49.240;9.088;2023-05-07T09:24:34;23.60;99.90
18868;DHT22;9563;49.240;9.088;2023-05-07T09:27:03;23.90;99.90
18868;DHT22;9563;49.240;9.088;2023-05-07T09:29:30;24.10;99.90
18868;DHT22;9563;49.240;9.088;2023-05-07T09:32:00;24.40;99.90
18868;DHT22;9563;49.240;9.088;2023-05-07T09:34:28;24.40;99.90
18868;DHT22;9563;49.240;9.088;2023-05-07T09:36:58;24.70;99.90
18868;DHT22;9563;49.240;9.088;2023-05-07T09:39:25;24.90;99.90
18868;DHT22;9563;49.240;9.088;2023-05-07T09:41:52;25.10;99.90
18868;DHT22;9563;49.240;9.088;2023-05-07T09:44:20;25.40;99.90
18868;DHT22;9563;49.240;9.088;2023-05-07T09:46:53;25.60;99.90
18868;DHT22;9563;49.240;9.088;2023-05-07T09:49:22;25.80;99.90
18868;DHT22;9563;49.240;9.088;2023-05-07T09:51:50;25.90;99.90
18868;DHT22;9563;49.240;9.088;2023-05-07T09:54:19;25.70;99.90
18868;DHT22;9563;49.240;9.088;2023-05-07T09:56:48;26.10;99.90
18868;DHT22;9563;49.240;9.088;2023-05-07T09:59:16;26.10;99.90
18868;DHT22;9563;49.240;9.088;2023-05-07T10:01:44;26.20;99.90
18868;DHT22;9563;49.240;9.088;2023-05-07T10:04:12;25.90;99.90
18868;DHT22;9563;49.240;9.088;2023-05-07T10:06:39;25.70;99.90
18868;DHT22;9563;49.240;9.088;2023-05-07T10:09:07;25.80;99.90
18868;DHT22;9563;49.240;9.088;2023-05-07T10:11:37;25.90;99.90
18868;DHT22;9563;49.240;9.088;2023-05-07T10:14:04;26.10;99.90
18868;DHT22;9563;49.240;9.088;2023-05-07T10:16:33;26.30;99.90
18868;DHT22;9563;49.240;9.088;2023-05-07T10:19:02;26.50;99.90
18868;DHT22;9563;49.240;9.088;2023-05-07T10:21:30;26.40;99.90
18868;DHT22;9563;49.240;9.088;2023-05-07T10:23:59;26.60;99.90
18868;DHT22;9563;49.240;9.088;2023-05-07T10:26:28;27.00;99.90
18868;DHT22;9563;49.240;9.088;2023-05-07T10:29:01;27.20;99.90
18868;DHT22;9563;49.240;9.088;2023-05-07T10:31:42;27.40;99.90
18868;DHT22;9563;49.240;9.088;2023-05-07T10:34:12;27.50;98.00
18868;DHT22;9563;49.240;9.088;2023-05-07T10:36:41;27.60;99.90
18868;DHT22;9563;49.240;9.088;2023-05-07T10:39:08;27.60;99.40
18868;DHT22;9563;49.240;9.088;2023-05-07T10:41:36;27.70;98.00
18868;DHT22;9563;49.240;9.088;2023-05-07T10:44:04;27.80;96.70
18868;DHT22;9563;49.240;9.088;2023-05-07T10:46:31;27.70;95.90
18868;DHT22;9563;49.240;9.088;2023-05-07T10:49:09;27.80;96.80
18868;DHT22;9563;49.240;9.088;2023-05-07T10:51:40;28.10;96.80
18868;DHT22;9563;49.240;9.088;2023-05-07T10:54:22;28.00;95.10
18868;DHT22;9563;49.240;9.088;2023-05-07T10:56:50;27.80;96.20
18868;DHT22;9563;49.240;9.088;2023-05-07T10:59:36;28.10;95.30
18868;DHT22;9563;49.240;9.088;2023-05-07T11:02:08;27.70;93.60
18868;DHT22;9563;49.240;9.088;2023-05-07T11:04:36;27.30;96.50
18868;DHT22;9563;49.240;9.088;2023-05-07T11:07:31;27.10;96.60
18868;DHT22;9563;49.240;9.088;2023-05-07T11:10:03;27.20;96.70
18868;DHT22;9563;49.240;9.088;2023-05-07T11:12:53;27.80;96.60
18868;DHT22;9563;49.240;9.088;2023-05-07T11:15:40;27.60;95.10
18868;DHT22;9563;49.240;9.088;2023-05-07T11:18:09;27.80;93.70
18868;DHT22;9563;49.240;9.088;2023-05-07T11:21:02;28.10;94.40
18868;DHT22;9563;49.240;9.088;2023-05-07T11:23:54;27.90;95.00
18868;DHT22;9563;49.240;9.088;2023-05-07T11:26:22;28.10;93.90
18868;DHT22;9563;49.240;9.088;2023-05-07T11:28:49;28.30;94.60
18868;DHT22;9563;49.240;9.088;2023-05-07T11:31:21;28.20;93.40
18868;DHT22;9563;49.240;9.088;2023-05-07T11:33:49;28.00;93.20
18868;DHT22;9563;49.240;9.088;2023-05-07T11:36:16;27.70;94.60
18868;DHT22;9563;49.240;9.088;2023-05-07T11:38:44;27.90;94.60
18868;DHT22;9563;49.240;9.088;2023-05-07T11:41:11;27.60;92.70
18868;DHT22;9563;49.240;9.088;2023-05-07T11:43:54;27.60;94.00
18868;DHT22;9563;49.240;9.088;2023-05-07T11:46:23;27.60;94.20
18868;DHT22;9563;49.240;9.088;2023-05-07T11:48:50;27.60;94.20
18868;DHT22;9563;49.240;9.088;2023-05-07T11:51:20;28.00;94.40
18868;DHT22;9563;49.240;9.088;2023-05-07T11:53:47;28.30;94.20
18868;DHT22;9563;49.240;9.088;2023-05-07T11:56:17;28.50;93.00
18868;DHT22;9563;49.240;9.088;2023-05-07T11:58:45;28.60;90.80
18868;DHT22;9563;49.240;9.088;2023-05-07T12:01:13;28.80;91.20
18868;DHT22;9563;49.240;9.088;2023-05-07T12:03:43;28.90;92.10
18868;DHT22;9563;49.240;9.088;2023-05-07T12:06:11;28.90;91.20
18868;DHT22;9563;49.240;9.088;2023-05-07T12:08:40;29.00;91.70
18868;DHT22;9563;49.240;9.088;2023-05-07T12:11:08;29.20;90.90
18868;DHT22;9563;49.240;9.088;2023-05-07T12:13:37;29.20;87.00
18868;DHT22;9563;49.240;9.088;2023-05-07T12:16:05;29.10;85.70
18868;DHT22;9563;49.240;9.088;2023-05-07T12:18:34;28.90;88.00
18868;DHT22;9563;49.240;9.088;2023-05-07T12:21:04;28.90;85.50
18868;DHT22;9563;49.240;9.088;2023-05-07T12:23:31;28.90;87.80
18868;DHT22;9563;49.240;9.088;2023-05-07T12:25:59;28.90;87.70
18868;DHT22;9563;49.240;9.088;2023-05-07T12:28:26;29.00;90.10
18868;DHT22;9563;49.240;9.088;2023-05-07T12:30:53;28.70;88.50
18868;DHT22;9563;49.240;9.088;2023-05-07T12:33:24;28.70;88.50
18868;DHT22;9563;49.240;9.088;2023-05-07T12:35:54;28.30;88.60
18868;DHT22;9563;49.240;9.088;2023-05-07T12:38:22;28.40;88.70
18868;DHT22;9563;49.240;9.088;2023-05-07T12:40:52;28.40;87.80
18868;DHT22;9563;49.240;9.088;2023-05-07T12:43:21;28.50;89.30
18868;DHT22;9563;49.240;9.088;2023-05-07T12:45:49;28.50;86.50
18868;DHT22;9563;49.240;9.088;2023-05-07T12:48:17;28.30;85.40
18868;DHT22;9563;49.240;9.088;2023-05-07T12:50:44;28.00;86.20
18868;DHT22;9563;49.240;9.088;2023-05-07T12:53:11;27.60;85.50
18868;DHT22;9563;49.240;9.088;2023-05-07T12:55:44;27.10;86.10
18868;DHT22;9563;49.240;9.088;2023-05-07T12:58:16;27.00;90.00
18868;DHT22;9563;49.240;9.088;2023-05-07T13:00:44;27.10;90.00
18868;DHT22;9563;49.240;9.088;2023-05-07T13:03:11;27.10;90.80
18868;DHT22;9563;49.240;9.088;2023-05-07T13:05:38;27.10;90.50
18868;DHT22;9563;49.240;9.088;2023-05-07T13:08:05;26.90;89.80
18868;DHT22;9563;49.240;9.088;2023-05-07T13:10:34;26.90;90.30
18868;DHT22;9563;49.240;9.088;2023-05-07T13:13:03;27.00;89.80
18868;DHT22;9563;49.240;9.088;2023-05-07T13:15:30;27.10;91.10
18868;DHT22;9563;49.240;9.088;2023-05-07T13:17:57;27.20;87.00
18868;DHT22;9563;49.240;9.088;2023-05-07T13:20:23;27.20;89.20
18868;DHT22;9563;49.240;9.088;2023-05-07T13:22:50;27.10;90.30
18868;DHT22;9563;49.240;9.088;2023-05-07T13:25:17;27.00;90.10
18868;DHT22;9563;49.240;9.088;2023-05-07T13:27:44;26.80;90.00
18868;DHT22;9563;49.240;9.088;2023-05-07T13:30:13;26.80;90.20
18868;DHT22;9563;49.240;9.088;2023-05-07T13:32:40;26.70;90.30
18868;DHT22;9563;49.240;9.088;2023-05-07T13:35:07;26.50;91.10
18868;DHT22;9563;49.240;9.088;2023-05-07T13:37:34;26.40;91.20
18868;DHT22;9563;49.240;9.088;2023-05-07T13:40:02;26.30;91.20
18868;DHT22;9563;49.240;9.088;2023-05-07T13:42:29;26.10;91.50
18868;DHT22;9563;49.240;9.088;2023-05-07T13:44:56;26.00;91.60
18868;DHT22;9563;49.240;9.088;2023-05-07T13:47:24;25.70;92.80
18868;DHT22;9563;49.240;9.088;2023-05-07T13:49:51;25.40;92.60
18868;DHT22;9563;49.240;9.088;2023-05-07T13:52:19;25.20;93.20
18868;DHT22;9563;49.240;9.088;2023-05-07T13:54:45;25.00;93.80
18868;DHT22;9563;49.240;9.088;2023-05-07T13:57:12;24.80;94.00
18868;DHT22;9563;49.240;9.088;2023-05-07T13:59:40;24.60;94.60
18868;DHT22;9563;49.240;9.088;2023-05-07T14:02:07;24.40;94.60
18868;DHT22;9563;49.240;9.088;2023-05-07T14:04:36;24.30;95.00
18868;DHT22;9563;49.240;9.088;2023-05-07T14:07:03;24.10;95.30
18868;DHT22;9563;49.240;9.088;2023-05-07T14:09:30;24.00;95.50
18868;DHT22;9563;49.240;9.088;2023-05-07T14:11:58;23.80;95.50
18868;DHT22;9563;49.240;9.088;2023-05-07T14:14:25;23.60;95.60
18868;DHT22;9563;49.240;9.088;2023-05-07T14:16:52;23.60;96.60
18868;DHT22;9563;49.240;9.088;2023-05-07T14:19:19;23.40;97.10
18868;DHT22;9563;49.240;9.088;2023-05-07T14:21:49;23.30;97.10
18868;DHT22;9563;49.240;9.088;2023-05-07T14:24:16;23.30;98.60
18868;DHT22;9563;49.240;9.088;2023-05-07T14:26:44;23.20;98.70
18868;DHT22;9563;49.240;9.088;2023-05-07T14:29:11;23.10;99.10
18868;DHT22;9563;49.240;9.088;2023-05-07T14:31:38;23.00;98.90
18868;DHT22;9563;49.240;9.088;2023-05-07T14:34:05;22.50;98.50
18868;DHT22;9563;49.240;9.088;2023-05-07T14:36:32;22.10;99.90
18868;DHT22;9563;49.240;9.088;2023-05-07T14:39:00;21.60;99.90
18868;DHT22;9563;49.240;9.088;2023-05-07T14:41:27;21.00;99.90
18868;DHT22;9563;49.240;9.088;2023-05-07T14:43:54;20.70;99.90
18868;DHT22;9563;49.240;9.088;2023-05-07T14:46:22;20.10;99.90
18868;DHT22;9563;49.240;9.088;2023-05-07T14:48:49;19.50;99.90
18868;DHT22;9563;49.240;9.088;2023-05-07T14:51:16;18.90;99.90
18868;DHT22;9563;49.240;9.088;2023-05-07T14:53:44;18.50;99.90
18868;DHT22;9563;49.240;9.088;2023-05-07T14:56:12;18.20;99.90
18868;DHT22;9563;49.240;9.088;2023-05-07T14:58:39;18.00;99.90
18868;DHT22;9563;49.240;9.088;2023-05-07T15:01:07;17.70;99.90
18868;DHT22;9563;49.240;9.088;2023-05-07T15:03:34;17.40;99.90
18868;DHT22;9563;49.240;9.088;2023-05-07T15:06:01;17.10;99.90
18868;DHT22;9563;49.240;9.088;2023-05-07T15:08:28;17.00;99.90
18868;DHT22;9563;49.240;9.088;2023-05-07T15:10:55;16.80;99.90
18868;DHT22;9563;49.240;9.088;2023-05-07T15:13:24;16.70;99.90
18868;DHT22;9563;49.240;9.088;2023-05-07T15:15:51;16.60;99.90
18868;DHT22;9563;49.240;9.088;2023-05-07T15:18:18;16.60;99.90
18868;DHT22;9563;49.240;9.088;2023-05-07T15:20:45;16.40;99.90
18868;DHT22;9563;49.240;9.088;2023-05-07T15:23:12;16.40;99.90
18868;DHT22;9563;49.240;9.088;2023-05-07T15:25:39;16.30;99.90
18868;DHT22;9563;49.240;9.088;2023-05-07T15:28:06;16.30;99.90
18868;DHT22;9563;49.240;9.088;2023-05-07T15:30:35;16.30;99.90
18868;DHT22;9563;49.240;9.088;2023-05-07T15:33:02;16.40;99.90
18868;DHT22;9563;49.240;9.088;2023-05-07T15:35:29;16.50;99.90
18868;DHT22;9563;49.240;9.088;2023-05-07T15:37:56;16.60;99.90
18868;DHT22;9563;49.240;9.088;2023-05-07T15:40:23;16.60;99.90
18868;DHT22;9563;49.240;9.088;2023-05-07T15:42:54;16.70;99.90
18868;DHT22;9563;49.240;9.088;2023-05-07T15:45:21;16.60;99.90
18868;DHT22;9563;49.240;9.088;2023-05-07T15:47:50;16.70;99.90
18868;DHT22;9563;49.240;9.088;2023-05-07T15:50:17;16.70;99.90
18868;DHT22;9563;49.240;9.088;2023-05-07T15:52:44;16.70;99.90
18868;DHT22;9563;49.240;9.088;2023-05-07T15:55:11;16.70;99.90
18868;DHT22;9563;49.240;9.088;2023-05-07T15:57:39;16.70;99.90
18868;DHT22;9563;49.240;9.088;2023-05-07T16:00:07;16.60;99.90
18868;DHT22;9563;49.240;9.088;2023-05-07T16:02:37;16.70;99.90
18868;DHT22;9563;49.240;9.088;2023-05-07T16:05:06;16.50;99.90
18868;DHT22;9563;49.240;9.088;2023-05-07T16:07:35;16.40;99.90
18868;DHT22;9563;49.240;9.088;2023-05-07T16:10:02;16.40;99.90
18868;DHT22;9563;49.240;9.088;2023-05-07T16:12:30;16.30;99.90
18868;DHT22;9563;49.240;9.088;2023-05-07T16:14:59;16.30;99.90
18868;DHT22;9563;49.240;9.088;2023-05-07T16:17:26;16.30;99.90
18868;DHT22;9563;49.240;9.088;2023-05-07T16:19:53;16.30;99.90
18868;DHT22;9563;49.240;9.088;2023-05-07T16:22:21;16.20;99.90
18868;DHT22;9563;49.240;9.088;2023-05-07T16:24:50;16.20;99.90
18868;DHT22;9563;49.240;9.088;2023-05-07T16:27:17;16.10;99.90
18868;DHT22;9563;49.240;9.088;2023-05-07T16:29:44;16.10;99.90
18868;DHT22;9563;49.240;9.088;2023-05-07T16:32:10;16.00;99.90
18868;DHT22;9563;49.240;9.088;2023-05-07T16:34:37;15.90;99.90
18868;DHT22;9563;49.240;9.088;2023-05-07T16:37:05;15.80;99.90
18868;DHT22;9563;49.240;9.088;2023-05-07T16:39:33;15.90;99.90
18868;DHT22;9563;49.240;9.088;2023-05-07T16:42:00;15.80;99.90
18868;DHT22;9563;49.240;9.088;2023-05-07T16:44:27;15.80;99.90
18868;DHT22;9563;49.240;9.088;2023-05-07T16:46:54;15.80;99.90
18868;DHT22;9563;49.240;9.088;2023-05-07T16:49:21;15.80;99.90
18868;DHT22;9563;49.240;9.088;2023-05-07T16:51:48;15.80;99.90
18868;DHT22;9563;49.240;9.088;2023-05-07T16:54:15;15.80;99.90
18868;DHT22;9563;49.240;9.088;2023-05-07T16:56:43;15.60;99.90
18868;DHT22;9563;49.240;9.088;2023-05-07T16:59:10;15.50;99.90
18868;DHT22;9563;49.240;9.088;2023-05-07T17:01:37;15.40;99.90
18868;DHT22;9563;49.240;9.088;2023-05-07T17:04:04;15.30;99.90
18868;DHT22;9563;49.240;9.088;2023-05-07T17:06:31;15.30;99.90
18868;DHT22;9563;49.240;9.088;2023-05-07T17:08:58;15.30;99.90
18868;DHT22;9563;49.240;9.088;2023-05-07T17:11:25;15.30;99.90
18868;DHT22;9563;49.240;9.088;2023-05-07T17:13:57;15.30;99.90
18868;DHT22;9563;49.240;9.088;2023-05-07T17:16:23;15.30;99.90
18868;DHT22;9563;49.240;9.088;2023-05-07T17:18:50;15.40;99.90
18868;DHT22;9563;49.240;9.088;2023-05-07T17:21:17;15.40;99.90
18868;DHT22;9563;49.240;9.088;2023-05-07T17:23:44;15.50;99.90
18868;DHT22;9563;49.240;9.088;2023-05-07T17:26:11;15.60;99.90
18868;DHT22;9563;49.240;9.088;2023-05-07T17:28:39;15.60;99.90
18868;DHT22;9563;49.240;9.088;2023-05-07T17:31:07;15.60;99.90
18868;DHT22;9563;49.240;9.088;2023-05-07T17:33:35;15.60;99.90
18868;DHT22;9563;49.240;9.088;2023-05-07T17:36:02;15.60;99.90
18868;DHT22;9563;49.240;9.088;2023-05-07T17:38:29;15.70;99.90
18868;DHT22;9563;49.240;9.088;2023-05-07T17:40:57;15.70;99.90
18868;DHT22;9563;49.240;9.088;2023-05-07T17:43:24;15.70;99.90
18868;DHT22;9563;49.240;9.088;2023-05-07T17:45:51;15.80;99.90
18868;DHT22;9563;49.240;9.088;2023-05-07T17:48:19;15.80;99.90
18868;DHT22;9563;49.240;9.088;2023-05-07T17:50:46;15.80;99.90
18868;DHT22;9563;49.240;9.088;2023-05-07T17:53:13;15.80;99.90
18868;DHT22;9563;49.240;9.088;2023-05-07T17:55:41;15.80;99.90
18868;DHT22;9563;49.240;9.088;2023-05-07T17:58:09;15.70;99.90
18868;DHT22;9563;49.240;9.088;2023-05-07T18:00:36;15.70;99.90
18868;DHT22;9563;49.240;9.088;2023-05-07T18:03:04;15.70;99.90
18868;DHT22;9563;49.240;9.088;2023-05-07T18:05:34;15.80;99.90
18868;DHT22;9563;49.240;9.088;2023-05-07T18:08:01;15.80;99.90
18868;DHT22;9563;49.240;9.088;2023-05-07T18:10:28;15.70;99.90
18868;DHT22;9563;49.240;9.088;2023-05-07T18:12:55;15.70;99.90
18868;DHT22;9563;49.240;9.088;2023-05-07T18:15:22;15.70;99.90
18868;DHT22;9563;49.240;9.088;2023-05-07T18:17:50;15.70;99.90
18868;DHT22;9563;49.240;9.088;2023-05-07T18:20:17;15.70;99.90
18868;DHT22;9563;49.240;9.088;2023-05-07T18:22:45;15.60;99.90
18868;DHT22;9563;49.240;9.088;2023-05-07T18:25:12;15.60;99.90
18868;DHT22;9563;49.240;9.088;2023-05-07T18:27:39;15.70;99.90
18868;DHT22;9563;49.240;9.088;2023-05-07T18:30:07;15.80;99.90
18868;DHT22;9563;49.240;9.088;2023-05-07T18:32:34;15.80;99.90
18868;DHT22;9563;49.240;9.088;2023-05-07T18:35:01;15.90;99.90
18868;DHT22;9563;49.240;9.088;2023-05-07T18:37:28;15.90;99.90
18868;DHT22;9563;49.240;9.088;2023-05-07T18:39:57;15.90;99.90
18868;DHT22;9563;49.240;9.088;2023-05-07T18:42:26;15.80;99.90
18868;DHT22;9563;49.240;9.088;2023-05-07T18:44:53;15.80;99.90
18868;DHT22;9563;49.240;9.088;2023-05-07T18:47:20;15.80;99.90
18868;DHT22;9563;49.240;9.088;2023-05-07T18:49:47;15.80;99.90
18868;DHT22;9563;49.240;9.088;2023-05-07T18:52:14;15.80;99.90
18868;DHT22;9563;49.240;9.088;2023-05-07T18:54:41;15.80;99.90
18868;DHT22;9563;49.240;9.088;2023-05-07T18:57:11;15.80;99.90
18868;DHT22;9563;49.240;9.088;2023-05-07T18:59:38;15.80;99.90
18868;DHT22;9563;49.240;9.088;2023-05-07T19:02:05;15.80;99.90
18868;DHT22;9563;49.240;9.088;2023-05-07T19:04:32;15.80;99.90
18868;DHT22;9563;49.240;9.088;2023-05-07T19:07:00;15.80;99.90
18868;DHT22;9563;49.240;9.088;2023-05-07T19:09:27;15.80;99.90
18868;DHT22;9563;49.240;9.088;2023-05-07T19:11:54;15.70;99.90
18868;DHT22;9563;49.240;9.088;2023-05-07T19:14:22;15.70;99.90
18868;DHT22;9563;49.240;9.088;2023-05-07T19:16:50;15.60;99.90
18868;DHT22;9563;49.240;9.088;2023-05-07T19:19:17;15.60;99.90
18868;DHT22;9563;49.240;9.088;2023-05-07T19:21:44;15.60;99.90
18868;DHT22;9563;49.240;9.088;2023-05-07T19:24:10;15.60;99.90
18868;DHT22;9563;49.240;9.088;2023-05-07T19:26:37;15.60;99.90
18868;DHT22;9563;49.240;9.088;2023-05-07T19:29:05;15.60;99.90
18868;DHT22;9563;49.240;9.088;2023-05-07T19:31:34;15.60;99.90
18868;DHT22;9563;49.240;9.088;2023-05-07T19:34:00;15.70;99.90
18868;DHT22;9563;49.240;9.088;2023-05-07T19:36:27;15.60;99.90
18868;DHT22;9563;49.240;9.088;2023-05-07T19:38:54;15.70;99.90
18868;DHT22;9563;49.240;9.088;2023-05-07T19:41:21;15.70;99.90
18868;DHT22;9563;49.240;9.088;2023-05-07T19:43:48;15.60;99.90
18868;DHT22;9563;49.240;9.088;2023-05-07T19:46:16;15.60;99.90
18868;DHT22;9563;49.240;9.088;2023-05-07T19:48:44;15.70;99.90
18868;DHT22;9563;49.240;9.088;2023-05-07T19:51:11;15.60;99.90
18868;DHT22;9563;49.240;9.088;2023-05-07T19:53:38;15.60;99.90
18868;DHT22;9563;49.240;9.088;2023-05-07T19:56:07;15.70;99.90
18868;DHT22;9563;49.240;9.088;2023-05-07T19:58:34;15.70;99.90
18868;DHT22;9563;49.240;9.088;2023-05-07T20:01:02;15.60;99.90
18868;DHT22;9563;49.240;9.088;2023-05-07T20:03:30;15.60;99.90
18868;DHT22;9563;49.240;9.088;2023-05-07T20:05:59;15.60;99.90
18868;DHT22;9563;49.240;9.088;2023-05-07T20:08:26;15.60;99.90
18868;DHT22;9563;49.240;9.088;2023-05-07T20:10:56;15.60;99.90
18868;DHT22;9563;49.240;9.088;2023-05-07T20:13:23;15.60;99.90
18868;DHT22;9563;49.240;9.088;2023-05-07T20:15:51;15.60;99.90
18868;DHT22;9563;49.240;9.088;2023-05-07T20:18:18;15.60;99.90
18868;DHT22;9563;49.240;9.088;2023-05-07T20:20:45;15.60;99.90
18868;DHT22;9563;49.240;9.088;2023-05-07T20:23:13;15.60;99.90
18868;DHT22;9563;49.240;9.088;2023-05-07T20:25:40;15.50;99.90
18868;DHT22;9563;49.240;9.088;2023-05-07T20:28:08;15.50;99.90
18868;DHT22;9563;49.240;9.088;2023-05-07T20:30:35;15.50;99.90
18868;DHT22;9563;49.240;9.088;2023-05-07T20:33:02;15.50;99.90
18868;DHT22;9563;49.240;9.088;2023-05-07T20:35:29;15.50;99.90
18868;DHT22;9563;49.240;9.088;2023-05-07T20:37:57;15.50;99.90
18868;DHT22;9563;49.240;9.088;2023-05-07T20:40:25;15.50;99.90
18868;DHT22;9563;49.240;9.088;2023-05-07T20:42:52;15.50;99.90
18868;DHT22;9563;49.240;9.088;2023-05-07T20:45:19;15.40;99.90
18868;DHT22;9563;49.240;9.088;2023-05-07T20:47:46;15.50;99.90
18868;DHT22;9563;49.240;9.088;2023-05-07T20:50:13;15.50;99.90